aviador You're here:

KABY Decoded Metar

ALBANY in GA, USA
Report Time2017-07-27 21:53:00
UTC Time2017-07-27 22:54:05
Flight Rules vfr VFR
Wind070° at 07 kt
W.Decomp.*RWY 04: 5.9 kt HW 3.7 kt RCW
RWY 16: 0.2 kt HW 7 kt LCW
W.Rank070° ranks 4
Current wind is above 070° avg. (6.6)
Visibility9999 m
Phenomena:N/A
Clouds:N/A
Expected CloudBase > 4,000 ft AGL from Temp-Dew spread
CeilingNone
Temp33°C (ISA +18)
Dew Point23°C (56% RH)
Heat Index38.1°C
QNH1015 hPa
Density Alt2,585 ft
Elevation190 ft
Report Wrong Elevation
Raw Report
METAR KABY 272153Z 07007KT 10SM CLR 33/23 A2996 RMK AO2 SLP143 T03330228=

Extra information for KABY:More info

Metar Taf Metar & Taf Last 4 Metars F.Rules Stats Wind Profile Meteogram Temp Stats Airport Information Weather charts Add Link Nearby VenuesMetar ALERT Operation Metar Decoded Social comments

AIRNAV info for KABY